createdAt,value
2023-02-02T00:02:29.569Z,98195.59
2023-02-02T00:05:22.713Z,98193.23
2023-02-02T00:08:15.969Z,98191.05
2023-02-02T00:11:09.059Z,98183.85
2023-02-02T00:14:02.187Z,98183.20
2023-02-02T00:16:55.620Z,98178.08
2023-02-02T00:19:49.068Z,98176.36
2023-02-02T00:22:41.809Z,98182.44
2023-02-02T00:25:34.907Z,98179.34
2023-02-02T00:28:27.648Z,98180.94
2023-02-02T00:31:13.908Z,98175.95
2023-02-02T00:34:06.791Z,98178.06
2023-02-02T00:37:00.148Z,98182.22
2023-02-02T00:39:53.149Z,98177.03
2023-02-02T00:42:50.540Z,98172.20
2023-02-02T00:45:43.397Z,98166.14
2023-02-02T00:48:36.442Z,98166.66
2023-02-02T00:51:29.246Z,98162.69
2023-02-02T00:54:22.903Z,98155.77
2023-02-02T00:57:17.396Z,98151.27
2023-02-02T01:00:15.281Z,98152.84
2023-02-02T01:03:08.248Z,98148.69
2023-02-02T01:06:01.032Z,98146.79
2023-02-02T01:08:53.855Z,98146.45
2023-02-02T01:11:46.702Z,98147.84
2023-02-02T01:14:39.448Z,98149.43
2023-02-02T01:17:32.385Z,98146.10
2023-02-02T01:20:25.944Z,98145.21
2023-02-02T01:23:18.896Z,98140.52
2023-02-02T01:26:13.964Z,98138.11
2023-02-02T01:29:07.473Z,98137.58
2023-02-02T01:32:00.872Z,98133.96
2023-02-02T01:34:53.070Z,98127.05
2023-02-02T01:37:45.989Z,98131.56
2023-02-02T01:40:38.894Z,98128.46
2023-02-02T01:43:52.809Z,98125.39
2023-02-02T01:46:46.786Z,98127.11
2023-02-02T01:49:41.530Z,98122.95
2023-02-02T01:52:37.133Z,98120.68
2023-02-02T01:55:32.900Z,98121.53
2023-02-02T01:58:27.390Z,98120.33
2023-02-02T02:01:20.364Z,98118.77
2023-02-02T02:04:13.672Z,98122.05
2023-02-02T02:07:02.357Z,98124.98
2023-02-02T02:09:55.448Z,98127.56
2023-02-02T02:12:49.021Z,98124.28
2023-02-02T02:16:20.146Z,98126.38
2023-02-02T02:19:27.308Z,98120.72
2023-02-02T02:22:39.817Z,98115.74
2023-02-02T02:26:16.416Z,98116.98
2023-02-02T02:29:35.909Z,98122.70
2023-02-02T02:32:37.932Z,98125.65
2023-02-02T02:35:38.431Z,98122.56
2023-02-02T02:38:40.186Z,98128.96
2023-02-02T02:41:39.423Z,98124.30
2023-02-02T02:44:33.750Z,98129.64
2023-02-02T02:47:27.242Z,98130.83
2023-02-02T02:50:20.607Z,98131.67
2023-02-02T02:53:17.247Z,98131.66
2023-02-02T02:56:18.815Z,98137.39
2023-02-02T02:59:19.797Z,98143.27
2023-02-02T03:02:41.271Z,98147.42
2023-02-02T03:05:43.192Z,98150.55
2023-02-02T03:08:41.689Z,98157.11
2023-02-02T03:11:35.686Z,98152.09
2023-02-02T03:14:28.887Z,98160.38
2023-02-02T03:17:21.968Z,98160.55
2023-02-02T03:20:06.552Z,98162.27
2023-02-02T03:22:59.444Z,98165.02
2023-02-02T03:25:52.411Z,98166.05
2023-02-02T03:28:38.542Z,98175.17
2023-02-02T03:31:32.317Z,98171.66
2023-02-02T03:34:25.435Z,98174.77
2023-02-02T03:37:19.856Z,98180.97
2023-02-02T03:40:14.918Z,98180.40
2023-02-02T03:43:08.239Z,98184.52
2023-02-02T03:46:04.533Z,98185.71
2023-02-02T03:48:50.137Z,98190.70
2023-02-02T03:51:44.524Z,98189.48
2023-02-02T03:54:38.459Z,98197.39
2023-02-02T03:57:31.476Z,98190.11
2023-02-02T04:00:26.620Z,98193.73
2023-02-02T04:03:19.721Z,98192.55
2023-02-02T04:06:14.544Z,98194.84
2023-02-02T04:09:07.496Z,98195.21
2023-02-02T04:12:03.451Z,98198.67
2023-02-02T04:14:56.369Z,98200.91
2023-02-02T04:17:51.006Z,98203.17
2023-02-02T04:20:43.985Z,98204.58
2023-02-02T04:23:37.276Z,98210.33
2023-02-02T04:26:30.445Z,98214.79
2023-02-02T04:29:23.696Z,98214.27
2023-02-02T04:32:17.661Z,98218.73
2023-02-02T04:35:12.084Z,98217.52
2023-02-02T04:38:05.210Z,98222.35
2023-02-02T04:40:59.329Z,98223.75
2023-02-02T04:43:52.440Z,98227.71
2023-02-02T04:46:47.343Z,98230.83
2023-02-02T04:49:40.145Z,98230.63
2023-02-02T04:52:35.426Z,98237.36
2023-02-02T04:55:18.441Z,98241.98
2023-02-02T04:58:11.658Z,98247.30
2023-02-02T05:01:11.847Z,98248.86
2023-02-02T05:03:54.231Z,98251.44
2023-02-02T05:06:47.449Z,98255.56
2023-02-02T05:09:42.088Z,98261.27
2023-02-02T05:12:35.061Z,98262.31
2023-02-02T05:15:28.076Z,98270.45
2023-02-02T05:18:22.203Z,98269.44
2023-02-02T05:21:15.180Z,98272.64
2023-02-02T05:24:08.549Z,98276.13
2023-02-02T05:27:01.719Z,98276.14
2023-02-02T05:29:54.520Z,98271.65
2023-02-02T05:32:47.476Z,98278.05
2023-02-02T05:35:39.425Z,98279.92
2023-02-02T05:38:32.680Z,98281.30
2023-02-02T05:41:25.961Z,98290.46
2023-02-02T05:44:19.643Z,98290.64
2023-02-02T05:47:14.210Z,98291.83
2023-02-02T05:50:08.225Z,98292.86
2023-02-02T05:53:02.952Z,98299.77
2023-02-02T05:55:55.984Z,98303.39
2023-02-02T05:58:50.622Z,98306.61
2023-02-02T06:01:43.479Z,98306.61
2023-02-02T06:04:38.975Z,98302.11
2023-02-02T06:07:32.195Z,98305.92
2023-02-02T06:10:26.891Z,98301.10
2023-02-02T06:13:19.671Z,98303.37
2023-02-02T06:16:13.947Z,98299.59
2023-02-02T06:19:06.732Z,98304.79
2023-02-02T06:21:59.675Z,98303.05
2023-02-02T06:24:53.633Z,98303.74
2023-02-02T06:27:46.589Z,98307.56
2023-02-02T06:30:27.224Z,98306.56
2023-02-02T06:33:20.337Z,98307.44
2023-02-02T06:36:13.514Z,98306.80
2023-02-02T06:39:00.609Z,98312.56
2023-02-02T06:41:53.724Z,98308.63
2023-02-02T06:44:46.600Z,98310.55
2023-02-02T06:47:39.343Z,98310.75
2023-02-02T06:50:32.478Z,98319.26
2023-02-02T06:53:26.848Z,98314.63
2023-02-02T06:56:19.995Z,98315.88
2023-02-02T06:59:13.148Z,98324.25
2023-02-02T07:02:06.022Z,98322.73
2023-02-02T07:04:57.954Z,98321.89
2023-02-02T07:07:53.772Z,98330.08
2023-02-02T07:11:12.718Z,98324.08
2023-02-02T07:13:51.443Z,98327.58
2023-02-02T07:16:44.169Z,98327.48
2023-02-02T07:19:31.428Z,98326.89
2023-02-02T07:22:24.252Z,98327.11
2023-02-02T07:25:17.130Z,98326.14
2023-02-02T07:28:00.290Z,98329.29
2023-02-02T07:30:43.137Z,98336.41
2023-02-02T07:33:40.212Z,98331.59
2023-02-02T07:36:27.535Z,98329.77
2023-02-02T07:39:10.394Z,98323.73
2023-02-02T07:41:53.532Z,98322.08
2023-02-02T07:44:49.266Z,98312.95
2023-02-02T07:47:43.280Z,98317.31
2023-02-02T07:50:36.718Z,98314.55
2023-02-02T07:53:30.998Z,98313.86
2023-02-02T07:56:15.493Z,98314.73
2023-02-02T07:59:07.045Z,98316.45
2023-02-02T08:01:58.536Z,98310.39
2023-02-02T08:04:43.978Z,98313.71
2023-02-02T08:07:38.714Z,98312.38
2023-02-02T08:10:31.593Z,98311.76
2023-02-02T08:13:25.341Z,98308.03
2023-02-02T08:16:17.678Z,98305.85
2023-02-02T08:19:11.051Z,98302.63
2023-02-02T08:22:04.772Z,98299.71
2023-02-02T08:24:48.198Z,98294.36
2023-02-02T08:27:35.232Z,98292.27
2023-02-02T08:30:29.784Z,98286.20
2023-02-02T08:33:22.628Z,98283.42
2023-02-02T08:36:06.068Z,98283.64
2023-02-02T08:39:02.979Z,98286.43
2023-02-02T08:41:59.782Z,98284.20
2023-02-02T08:46:12.727Z,98284.06
2023-02-02T08:48:10.710Z,98276.80
2023-02-02T08:50:59.217Z,98271.43
2023-02-02T08:53:51.747Z,98269.02
2023-02-02T08:56:44.645Z,98266.77
2023-02-02T08:59:38.009Z,98266.41
2023-02-02T09:02:23.291Z,98263.48
2023-02-02T09:05:16.179Z,98265.02
2023-02-02T09:08:09.082Z,98258.39
2023-02-02T09:11:06.264Z,98265.36
2023-02-02T09:14:02.294Z,98260.99
2023-02-02T09:16:56.535Z,98260.83
2023-02-02T09:19:39.429Z,98258.91
2023-02-02T09:22:24.843Z,98260.84
2023-02-02T09:25:18.028Z,98260.16
2023-02-02T09:28:11.013Z,98258.76
2023-02-02T09:30:56.602Z,98251.83
2023-02-02T09:33:42.611Z,98249.23
2023-02-02T09:36:27.030Z,98251.30
2023-02-02T09:39:29.527Z,98251.84
2023-02-02T09:42:42.941Z,98255.30
2023-02-02T09:45:47.544Z,98252.89
2023-02-02T09:48:52.282Z,98249.58
2023-02-02T09:51:50.814Z,98246.78
2023-02-02T09:54:49.682Z,98247.96
2023-02-02T09:57:47.525Z,98249.85
2023-02-02T10:00:45.688Z,98245.01
2023-02-02T10:03:45.465Z,98246.41
2023-02-02T10:06:38.689Z,98242.61
2023-02-02T10:09:41.266Z,98238.96
2023-02-02T10:12:47.952Z,98230.95
2023-02-02T10:15:45.223Z,98231.80
2023-02-02T10:18:46.157Z,98229.34
2023-02-02T10:21:46.848Z,98231.27
2023-02-02T10:24:40.173Z,98227.27
2023-02-02T10:27:39.592Z,98226.02
2023-02-02T10:30:45.866Z,98232.75
2023-02-02T10:33:41.018Z,98225.61
2023-02-02T10:36:36.019Z,98223.02
2023-02-02T10:39:41.807Z,98223.07
2023-02-02T10:43:06.937Z,98216.83
2023-02-02T10:45:55.995Z,98217.50
2023-02-02T10:48:37.394Z,98220.09
2023-02-02T10:51:31.289Z,98216.94
2023-02-02T10:54:54.962Z,98217.44
2023-02-02T10:57:59.420Z,98226.58
2023-02-02T11:00:54.508Z,98221.00
2023-02-02T11:03:47.892Z,98221.66
2023-02-02T11:06:50.914Z,98221.09
2023-02-02T11:09:45.631Z,98218.77
2023-02-02T11:12:41.305Z,98221.18
2023-02-02T11:15:33.625Z,98213.20
2023-02-02T11:18:33.396Z,98212.48
2023-02-02T11:21:28.692Z,98211.92
2023-02-02T11:24:25.949Z,98213.27
2023-02-02T11:27:26.137Z,98206.44
2023-02-02T11:30:29.100Z,98206.55
2023-02-02T11:33:28.914Z,98205.79
2023-02-02T11:36:23.655Z,98205.75
2023-02-02T11:39:22.885Z,98202.73
2023-02-02T11:42:21.438Z,98198.00
2023-02-02T11:45:21.387Z,98198.64
2023-02-02T11:48:20.436Z,98195.83
2023-02-02T11:51:25.864Z,98195.27
2023-02-02T11:54:25.149Z,98190.08
2023-02-02T11:57:22.753Z,98190.13
2023-02-02T12:00:28.816Z,98192.47
2023-02-02T12:03:33.217Z,98191.36
2023-02-02T12:06:23.699Z,98187.81
2023-02-02T12:09:22.526Z,98198.95
2023-02-02T12:12:43.945Z,98189.80
2023-02-02T12:15:47.786Z,98182.73
2023-02-02T12:18:55.674Z,98191.59
2023-02-02T12:21:50.619Z,98187.42
2023-02-02T12:24:52.523Z,98197.98
2023-02-02T12:27:57.472Z,98200.75
2023-02-02T12:31:00.002Z,98205.05
2023-02-02T12:34:02.319Z,98207.23
2023-02-02T12:37:04.463Z,98205.48
2023-02-02T12:40:17.701Z,98200.45
2023-02-02T12:43:22.954Z,98200.45
2023-02-02T12:46:40.707Z,98210.30
2023-02-02T12:49:54.624Z,98208.21
2023-02-02T12:53:08.819Z,98213.58
2023-02-02T12:56:16.670Z,98211.01
2023-02-02T12:59:19.836Z,98211.85
2023-02-02T13:02:07.490Z,98209.11
2023-02-02T13:05:14.532Z,98216.43
2023-02-02T13:08:10.973Z,98214.73
2023-02-02T13:11:31.064Z,98220.67
2023-02-02T13:14:29.032Z,98227.26
2023-02-02T13:17:27.282Z,98231.40
2023-02-02T13:20:33.187Z,98240.58
2023-02-02T13:23:30.306Z,98232.78
2023-02-02T13:26:14.197Z,98247.34
2023-02-02T13:29:03.662Z,98247.87
2023-02-02T13:32:01.878Z,98253.92
2023-02-02T13:34:58.555Z,98256.00
2023-02-02T13:38:00.736Z,98255.64
2023-02-02T13:40:56.305Z,98266.05
2023-02-02T13:43:58.398Z,98265.88
2023-02-02T13:46:58.086Z,98276.61
2023-02-02T13:49:54.857Z,98275.58
2023-02-02T13:53:10.671Z,98281.98
2023-02-02T13:56:25.625Z,98293.97
2023-02-02T13:59:37.100Z,98302.30
2023-02-02T14:02:39.828Z,98301.05
2023-02-02T14:05:36.103Z,98310.91
2023-02-02T14:08:30.879Z,98316.10
2023-02-02T14:11:28.729Z,98320.27
2023-02-02T14:14:35.330Z,98324.08
2023-02-02T14:17:56.375Z,98325.80
2023-02-02T14:20:52.693Z,98336.33
2023-02-02T14:23:56.451Z,98339.23
2023-02-02T14:26:54.436Z,98336.94
2023-02-02T14:30:17.751Z,98342.81
2023-02-02T14:33:47.584Z,98349.39
2023-02-02T14:36:52.986Z,98359.95
2023-02-02T14:39:59.105Z,98365.64
2023-02-02T14:43:25.629Z,98377.23
2023-02-02T14:46:37.826Z,98374.78
2023-02-02T14:49:39.207Z,98381.70
2023-02-02T14:52:34.735Z,98383.42
2023-02-02T14:55:30.377Z,98391.41
2023-02-02T14:58:26.303Z,98393.16
2023-02-02T15:01:24.859Z,98403.39
2023-02-02T15:04:28.289Z,98410.16
2023-02-02T15:07:40.266Z,98410.33
2023-02-02T15:11:22.616Z,98423.50
2023-02-02T15:14:10.748Z,98420.20
2023-02-02T15:16:59.437Z,98420.04
2023-02-02T15:19:57.492Z,98422.83
2023-02-02T15:22:52.353Z,98429.91
2023-02-02T15:25:49.259Z,98440.95
2023-02-02T15:28:49.678Z,98444.14
2023-02-02T15:31:47.721Z,98446.03
2023-02-02T15:34:48.789Z,98451.58
2023-02-02T15:37:45.843Z,98461.10
2023-02-02T15:40:40.943Z,98468.55
2023-02-02T15:43:30.126Z,98473.91
2023-02-02T15:46:26.542Z,98477.21
2023-02-02T15:49:36.039Z,98494.02
2023-02-02T15:52:33.178Z,98505.95
2023-02-02T15:55:27.190Z,98509.10
2023-02-02T15:58:29.144Z,98519.02
2023-02-02T16:01:25.552Z,98525.45
2023-02-02T16:04:22.458Z,98531.33
2023-02-02T16:07:22.270Z,98551.05
2023-02-02T16:10:23.859Z,98555.88
2023-02-02T16:13:26.795Z,98561.59
2023-02-02T16:16:29.113Z,98568.50
2023-02-02T16:19:25.220Z,98572.58
2023-02-02T16:22:21.319Z,98582.08
2023-02-02T16:25:23.421Z,98594.86
2023-02-02T16:28:18.736Z,98597.27
2023-02-02T16:31:07.822Z,98604.67
2023-02-02T16:34:02.793Z,98610.95
2023-02-02T16:37:17.872Z,98619.95
2023-02-02T16:40:29.810Z,98623.71
2023-02-02T16:43:29.534Z,98635.62
2023-02-02T16:46:45.720Z,98640.23
2023-02-02T16:49:30.231Z,98651.30
2023-02-02T16:52:24.543Z,98647.95
2023-02-02T16:55:14.698Z,98650.99
2023-02-02T16:58:07.562Z,98655.95
2023-02-02T17:01:14.165Z,98670.08
2023-02-02T17:04:17.517Z,98674.50
2023-02-02T17:07:11.772Z,98677.75
2023-02-02T17:10:14.044Z,98690.48
2023-02-02T17:13:01.643Z,98699.09
2023-02-02T17:15:54.814Z,98701.98
2023-02-02T17:18:48.134Z,98710.77
2023-02-02T17:21:41.193Z,98720.28
2023-02-02T17:24:27.265Z,98722.85
2023-02-02T17:27:03.627Z,98731.27
2023-02-02T17:30:01.155Z,98740.52
2023-02-02T17:32:54.297Z,98751.11
2023-02-02T17:35:55.730Z,98744.09
2023-02-02T17:38:40.806Z,98753.14
2023-02-02T17:41:16.984Z,98764.63
2023-02-02T17:43:49.771Z,98766.40
2023-02-02T17:46:35.216Z,98773.21
2023-02-02T17:49:28.070Z,98765.66
2023-02-02T17:52:11.091Z,98778.88
2023-02-02T17:54:52.007Z,98787.90
2023-02-02T17:57:27.780Z,98787.64
2023-02-02T18:00:23.427Z,98793.96
2023-02-02T18:03:19.447Z,98802.34
2023-02-02T18:06:00.669Z,98807.77
2023-02-02T18:08:45.689Z,98821.76
2023-02-02T18:11:38.880Z,98832.64
2023-02-02T18:14:14.600Z,98833.69
2023-02-02T18:16:47.409Z,98838.15
2023-02-02T18:19:33.161Z,98841.09
2023-02-02T18:22:18.685Z,98845.19
2023-02-02T18:25:12.209Z,98848.41
2023-02-02T18:27:57.832Z,98849.77
2023-02-02T18:30:30.617Z,98852.88
2023-02-02T18:33:03.451Z,98853.08
2023-02-02T18:35:42.084Z,98858.93
2023-02-02T18:38:19.720Z,98868.73
2023-02-02T18:40:59.079Z,98868.22
2023-02-02T18:43:32.485Z,98876.87
2023-02-02T18:46:10.358Z,98876.65
2023-02-02T18:48:48.387Z,98884.86
2023-02-02T18:51:22.159Z,98884.61
2023-02-02T18:54:00.405Z,98894.52
2023-02-02T18:56:33.495Z,98902.33
2023-02-02T18:59:06.946Z,98905.34
2023-02-02T19:02:02.611Z,98909.20
2023-02-02T19:04:37.113Z,98915.80
2023-02-02T19:07:30.706Z,98925.02
2023-02-02T19:10:14.202Z,98928.00
2023-02-02T19:12:53.155Z,98929.20
2023-02-02T19:15:47.244Z,98931.35
2023-02-02T19:18:40.018Z,98931.96
2023-02-02T19:21:20.238Z,98936.17
2023-02-02T19:24:15.925Z,98950.62
2023-02-02T19:26:54.096Z,98959.56
2023-02-02T19:29:41.309Z,98964.39
2023-02-02T19:32:27.020Z,98968.23
2023-02-02T19:35:24.551Z,98973.86
2023-02-02T19:38:07.779Z,98978.48
2023-02-02T19:40:43.597Z,98976.49
2023-02-02T19:43:37.182Z,98975.00
2023-02-02T19:46:34.289Z,98980.98
2023-02-02T19:49:16.224Z,98981.96
2023-02-02T19:52:03.879Z,98990.00
2023-02-02T19:54:57.040Z,98991.45
2023-02-02T19:57:50.171Z,99002.05
2023-02-02T20:00:44.998Z,99012.81
2023-02-02T20:03:46.616Z,99019.05
2023-02-02T20:06:27.026Z,99023.62
2023-02-02T20:09:15.419Z,99032.99
2023-02-02T20:12:23.564Z,99039.42
2023-02-02T20:14:58.686Z,99044.83
2023-02-02T20:17:34.566Z,99044.94
2023-02-02T20:20:30.010Z,99041.90
2023-02-02T20:23:04.282Z,99038.68
2023-02-02T20:25:41.674Z,99041.33
2023-02-02T20:28:32.704Z,99032.91
2023-02-02T20:31:18.347Z,99032.89
2023-02-02T20:33:53.375Z,99048.58
2023-02-02T20:36:39.288Z,99043.16
2023-02-02T20:39:36.812Z,99053.54
2023-02-02T20:42:20.921Z,99056.84
2023-02-02T20:44:58.308Z,99070.36
2023-02-02T20:47:52.482Z,99077.15
2023-02-02T20:50:31.335Z,99086.50
2023-02-02T20:53:10.099Z,99086.40
2023-02-02T20:55:47.320Z,99092.84
2023-02-02T20:58:33.065Z,99095.61
2023-02-02T21:01:26.287Z,99108.26
2023-02-02T21:04:21.339Z,99122.02
2023-02-02T21:07:14.237Z,99121.14
2023-02-02T21:10:07.977Z,99128.55
2023-02-02T21:13:00.769Z,99131.95
2023-02-02T21:15:53.514Z,99132.95
2023-02-02T21:18:47.362Z,99135.71
2023-02-02T21:21:40.472Z,99136.85
2023-02-02T21:24:33.439Z,99146.95
2023-02-02T21:27:26.246Z,99152.20
2023-02-02T21:30:03.755Z,99150.67
2023-02-02T21:32:58.174Z,99157.52
2023-02-02T21:35:51.038Z,99163.67
2023-02-02T21:38:45.238Z,99170.85
2023-02-02T21:41:38.507Z,99174.41
2023-02-02T21:44:27.615Z,99170.88
2023-02-02T21:47:29.916Z,99180.58
2023-02-02T21:50:21.376Z,99186.17
2023-02-02T21:53:22.202Z,99184.59
2023-02-02T21:56:33.519Z,99191.20
2023-02-02T21:59:31.108Z,99190.95
2023-02-02T22:02:45.317Z,99195.25
2023-02-02T22:05:39.062Z,99201.48
2023-02-02T22:08:36.707Z,99202.53
2023-02-02T22:11:31.269Z,99203.57
2023-02-02T22:14:21.773Z,99204.91
2023-02-02T22:17:23.133Z,99210.22
2023-02-02T22:20:30.833Z,99208.19
2023-02-02T22:23:04.722Z,99208.85
2023-02-02T22:25:59.291Z,99212.02
2023-02-02T22:28:52.178Z,99215.55
2023-02-02T22:31:44.985Z,99215.60
2023-02-02T22:34:30.924Z,99214.40
2023-02-02T22:37:23.819Z,99229.84
2023-02-02T22:40:22.692Z,99234.36
2023-02-02T22:43:16.371Z,99237.61
2023-02-02T22:46:09.315Z,99239.69
2023-02-02T22:49:00.976Z,99239.73
2023-02-02T22:51:46.132Z,99240.13
2023-02-02T22:54:38.900Z,99240.81
2023-02-02T22:57:32.247Z,99247.85
2023-02-02T23:00:28.067Z,99252.02
2023-02-02T23:03:21.143Z,99255.11
2023-02-02T23:06:14.126Z,99253.02
2023-02-02T23:09:06.993Z,99256.66
2023-02-02T23:11:59.750Z,99264.13
2023-02-02T23:14:52.579Z,99267.73
2023-02-02T23:17:45.475Z,99260.46
2023-02-02T23:20:38.442Z,99267.55
2023-02-02T23:23:31.270Z,99267.88
2023-02-02T23:26:24.475Z,99270.16
2023-02-02T23:29:17.384Z,99271.16
2023-02-02T23:32:10.334Z,99272.59
2023-02-02T23:35:03.546Z,99269.68
2023-02-02T23:37:56.423Z,99283.77
2023-02-02T23:40:41.547Z,99291.66
2023-02-02T23:43:26.931Z,99294.48
2023-02-02T23:46:23.145Z,99295.12
2023-02-02T23:49:16.320Z,99304.31
2023-02-02T23:52:09.961Z,99304.27
2023-02-02T23:55:02.846Z,99311.73
2023-02-02T23:57:57.841Z,99311.38
